Time;durP1;ratioP1;P1;durP2;ratioP2;P2;SDS_P1;SDS_P2;PMS_P1;PMS_P2;Temp;Humidity;BMP_temperature;BMP_pressure;BME280_temperature;BME280_humidity;BME280_pressure;Samples;Min_cycle;Max_cycle;Signal;HPM_P1;HPM_P2
2022/09/03 00:02:25;;;;;;;1.50;1.40;;;20.70;49.50;;;;;;6100690;23;20167;-86
2022/09/03 00:05:09;;;;;;;1.35;1.25;;;20.70;49.50;;;;;;6077313;23;20136;-86
2022/09/03 00:07:42;;;;;;;1.63;1.52;;;20.70;49.50;;;;;;6037290;23;20212;-86
2022/09/03 00:10:11;;;;;;;1.40;1.30;;;20.70;49.50;;;;;;6036512;23;20181;-86
2022/09/03 00:12:41;;;;;;;1.60;1.50;;;20.70;49.50;;;;;;6008900;23;20203;-85
2022/09/03 00:15:11;;;;;;;1.65;1.38;;;20.70;49.60;;;;;;5985378;23;20183;-86
2022/09/03 00:17:39;;;;;;;1.58;1.48;;;20.70;49.60;;;;;;5985265;23;20207;-86
2022/09/03 00:20:11;;;;;;;1.50;1.40;;;20.70;49.60;;;;;;5985487;23;20159;-86
2022/09/03 00:22:41;;;;;;;1.52;1.40;;;20.70;49.60;;;;;;5986395;23;20182;-85
2022/09/03 00:25:13;;;;;;;1.33;1.23;;;20.70;49.60;;;;;;5985054;23;20249;-86
2022/09/03 00:27:50;;;;;;;1.23;1.13;;;20.70;49.60;;;;;;5985071;23;20162;-85
2022/09/03 00:30:19;;;;;;;1.50;1.40;;;20.70;49.50;;;;;;5962812;23;20186;-85
2022/09/03 00:33:08;;;;;;;2.05;1.40;;;20.70;49.60;;;;;;5989644;23;20666;-86
2022/09/03 00:35:42;;;;;;;1.40;1.30;;;20.70;49.60;;;;;;5992935;23;20194;-85
2022/09/03 00:38:10;;;;;;;1.25;1.15;;;20.70;49.60;;;;;;5991046;23;20234;-85
2022/09/03 00:41:06;;;;;;;1.55;1.25;;;20.70;49.60;;;;;;6013513;23;20158;-86
2022/09/03 00:43:51;;;;;;;1.83;1.35;;;20.70;49.70;;;;;;6000489;23;20160;-86
2022/09/03 00:46:33;;;;;;;1.55;1.45;;;20.70;49.70;;;;;;6103410;23;20159;-85
2022/09/03 00:49:23;;;;;;;1.48;1.38;;;20.60;49.70;;;;;;6082129;23;20156;-85
2022/09/03 00:52:23;;;;;;;1.40;1.30;;;20.70;49.80;;;;;;6105827;23;20140;-86
2022/09/03 00:55:10;;;;;;;1.30;1.20;;;20.70;49.80;;;;;;6109669;23;20164;-85
2022/09/03 00:58:02;;;;;;;1.95;1.20;;;20.70;49.80;;;;;;6151050;23;20151;-86
2022/09/03 01:00:28;;;;;;;1.30;1.15;;;20.70;49.90;;;;;;6108466;23;20182;-86
2022/09/03 01:03:07;;;;;;;1.40;1.30;;;20.70;49.80;;;;;;6127479;23;20175;-86
2022/09/03 01:05:58;;;;;;;;;;;;;;;;;;;;;
2022/09/03 01:08:50;;;;;;;1.25;1.15;;;20.60;49.80;;;;;;6079580;23;20247;-86
2022/09/03 01:11:35;;;;;;;1.25;1.15;;;20.60;49.80;;;;;;6105771;23;20208;-86
2022/09/03 01:14:34;;;;;;;1.45;1.30;;;20.60;49.90;;;;;;6081873;23;20152;-85
2022/09/03 01:17:14;;;;;;;1.35;1.25;;;20.60;49.80;;;;;;6127959;23;20141;-86
2022/09/03 01:20:14;;;;;;;1.00;1.00;;;20.60;49.80;;;;;;6104999;23;20180;-86
2022/09/03 01:23:09;;;;;;;1.20;1.10;;;20.70;49.90;;;;;;6084293;23;20325;-85
2022/09/03 01:26:03;;;;;;;1.45;1.35;;;20.60;49.80;;;;;;6101830;23;20152;-86
2022/09/03 01:28:58;;;;;;;1.30;1.20;;;20.60;49.80;;;;;;6130152;23;20148;-86
2022/09/03 01:31:48;;;;;;;1.40;1.30;;;20.70;49.90;;;;;;6104680;23;20457;-85
2022/09/03 01:34:40;;;;;;;1.25;1.17;;;20.60;49.90;;;;;;6079473;23;20170;-85
2022/09/03 01:37:33;;;;;;;1.20;1.10;;;20.60;49.90;;;;;;6100997;23;20543;-86
2022/09/03 01:40:18;;;;;;;1.50;1.40;;;20.60;49.90;;;;;;6061744;23;20631;-86
2022/09/03 01:43:01;;;;;;;1.45;1.35;;;20.60;49.90;;;;;;6129886;23;20150;-86
2022/09/03 01:45:53;;;;;;;1.33;1.23;;;20.60;50.00;;;;;;6081431;23;20190;-86
2022/09/03 01:48:31;;;;;;;1.02;0.93;;;20.60;49.90;;;;;;6065382;23;20163;-86
2022/09/03 01:51:20;;;;;;;1.33;1.23;;;20.60;49.90;;;;;;6057858;23;20526;-86
2022/09/03 01:54:11;;;;;;;1.73;1.05;;;20.70;50.00;;;;;;6105683;23;21193;-86
2022/09/03 01:57:15;;;;;;;1.10;1.02;;;20.60;50.00;;;;;;6082089;23;20183;-85
2022/09/03 01:59:44;;;;;;;1.30;1.20;;;20.60;50.00;;;;;;6129844;23;20162;-85
2022/09/03 02:02:19;;;;;;;1.40;1.30;;;20.60;50.00;;;;;;6067139;23;20188;-85
2022/09/03 02:04:56;;;;;;;1.33;1.23;;;20.60;50.00;;;;;;6040183;23;20528;-86
2022/09/03 02:07:24;;;;;;;1.10;1.10;;;20.60;50.00;;;;;;6067051;23;20156;-86
2022/09/03 02:09:50;;;;;;;1.20;1.10;;;20.60;50.00;;;;;;6066728;23;20152;-86
2022/09/03 02:12:16;;;;;;;1.38;1.27;;;20.60;50.00;;;;;;6066766;23;20181;-86
2022/09/03 02:14:43;;;;;;;1.00;1.00;;;20.60;50.00;;;;;;6042908;23;20150;-85
2022/09/03 02:17:11;;;;;;;1.27;1.17;;;20.60;50.00;;;;;;6042936;23;20606;-86
2022/09/03 02:19:39;;;;;;;1.05;1.00;;;20.60;50.10;;;;;;6042809;23;20183;-85
2022/09/03 02:22:07;;;;;;;1.30;1.20;;;20.60;50.10;;;;;;6042626;23;20194;-86
2022/09/03 02:24:34;;;;;;;1.05;0.98;;;20.60;50.10;;;;;;6041123;23;20498;-86
2022/09/03 02:27:01;;;;;;;1.30;1.20;;;20.60;50.10;;;;;;6066046;23;20212;-85
2022/09/03 02:29:28;;;;;;;0.90;0.90;;;20.60;50.10;;;;;;6066304;23;20161;-85
2022/09/03 02:31:54;;;;;;;1.30;1.20;;;20.60;50.10;;;;;;6042842;23;20158;-86
2022/09/03 02:34:20;;;;;;;1.27;1.17;;;20.60;50.10;;;;;;6106611;23;20139;-85
2022/09/03 02:36:48;;;;;;;1.38;1.27;;;20.60;50.10;;;;;;6130577;23;20217;-85
2022/09/03 02:39:17;;;;;;;1.10;1.10;;;20.60;50.20;;;;;;6105683;23;20199;-85
2022/09/03 02:41:43;;;;;;;1.05;1.02;;;20.60;50.10;;;;;;6082472;23;20183;-86
2022/09/03 02:44:24;;;;;;;1.30;1.20;;;20.60;50.20;;;;;;6081535;23;20612;-86
2022/09/03 02:46:53;;;;;;;1.23;1.13;;;20.60;50.90;;;;;;6109330;23;20498;-86
2022/09/03 02:49:18;;;;;;;1.23;1.13;;;20.60;50.20;;;;;;6155145;23;20234;-85
2022/09/03 02:51:44;;;;;;;1.40;1.30;;;20.60;50.30;;;;;;6082181;23;20181;-86
2022/09/03 02:54:19;;;;;;;1.33;1.13;;;20.60;50.20;;;;;;6082104;23;20158;-86
2022/09/03 02:56:48;;;;;;;1.33;1.23;;;20.60;50.20;;;;;;6082826;23;20205;-86
2022/09/03 02:59:14;;;;;;;1.02;1.02;;;20.60;50.20;;;;;;6105127;23;20162;-86
2022/09/03 03:01:39;;;;;;;1.20;1.20;;;20.60;50.20;;;;;;6105879;23;20269;-85
2022/09/03 03:04:07;;;;;;;1.30;1.20;;;20.60;50.20;;;;;;6130378;23;20135;-85
2022/09/03 03:06:32;;;;;;;1.13;1.00;;;20.50;50.90;;;;;;6056819;23;20242;-86
2022/09/03 03:09:03;;;;;;;1.20;1.10;;;20.60;50.20;;;;;;6130056;23;20182;-85
2022/09/03 03:11:29;;;;;;;1.17;1.08;;;20.60;50.30;;;;;;6059579;23;20242;-86
2022/09/03 03:13:57;;;;;;;1.20;1.10;;;20.50;50.20;;;;;;6130229;23;20135;-86
2022/09/03 03:16:23;;;;;;;1.15;1.05;;;20.60;50.30;;;;;;6105929;23;20167;-86
2022/09/03 03:18:49;;;;;;;1.30;1.20;;;20.50;50.30;;;;;;6156610;23;20552;-86
2022/09/03 03:21:18;;;;;;;1.20;1.10;;;20.60;50.30;;;;;;6129239;23;20255;-86
2022/09/03 03:23:47;;;;;;;1.10;1.00;;;20.50;50.30;;;;;;6104409;23;20159;-86
2022/09/03 03:26:17;;;;;;;1.08;1.08;;;20.50;50.30;;;;;;6152947;23;20155;-86
2022/09/03 03:28:45;;;;;;;1.23;1.13;;;20.50;50.30;;;;;;6128680;23;20223;-86
2022/09/03 03:31:13;;;;;;;1.00;1.00;;;20.50;50.30;;;;;;6153902;23;20784;-85
2022/09/03 03:33:40;;;;;;;1.30;1.20;;;20.50;50.30;;;;;;6128827;23;20162;-86
2022/09/03 03:36:11;;;;;;;1.30;1.20;;;20.50;50.30;;;;;;6128144;23;20226;-86
2022/09/03 03:38:37;;;;;;;1.23;1.13;;;20.60;50.40;;;;;;6152376;23;20257;-84
2022/09/03 03:41:09;;;;;;;1.00;1.00;;;20.50;50.30;;;;;;6129344;23;20187;-85
2022/09/03 03:43:37;;;;;;;1.20;1.10;;;20.50;50.30;;;;;;6128842;23;20218;-85
2022/09/03 03:46:04;;;;;;;1.23;1.13;;;20.50;50.40;;;;;;6152936;23;20575;-86
2022/09/03 03:48:32;;;;;;;1.05;0.90;;;20.50;50.30;;;;;;6128706;23;20578;-85
2022/09/03 03:51:01;;;;;;;1.15;1.05;;;20.50;50.40;;;;;;6126830;23;20176;-86
2022/09/03 03:53:27;;;;;;;1.10;1.00;;;20.50;50.30;;;;;;6100045;23;20532;-86
2022/09/03 03:55:55;;;;;;;1.13;1.02;;;20.50;50.40;;;;;;6075463;23;20199;-86
2022/09/03 03:58:24;;;;;;;1.80;1.17;;;20.60;50.50;;;;;;6075171;23;20152;-85
2022/09/03 04:00:50;;;;;;;1.30;1.15;;;20.50;50.40;;;;;;6099671;23;20140;-86
2022/09/03 04:03:22;;;;;;;1.27;1.02;;;20.50;50.40;;;;;;6099573;23;20243;-85
2022/09/03 04:05:58;;;;;;;1.20;1.10;;;20.50;50.40;;;;;;6076311;23;20144;-85
2022/09/03 04:08:24;;;;;;;1.00;1.00;;;20.50;50.40;;;;;;6053314;23;20167;-86
2022/09/03 04:10:53;;;;;;;1.00;1.00;;;20.50;50.40;;;;;;6075477;23;20140;-85
2022/09/03 04:13:21;;;;;;;0.90;0.90;;;20.50;50.40;;;;;;6065591;23;20177;-85
2022/09/03 04:15:46;;;;;;;1.20;1.10;;;20.50;50.40;;;;;;6066112;23;20300;-85
2022/09/03 04:18:15;;;;;;;1.30;1.20;;;20.50;50.30;;;;;;6018250;23;20595;-85
2022/09/03 04:20:42;;;;;;;1.10;1.00;;;20.50;50.40;;;;;;6018495;23;20297;-85
2022/09/03 04:23:11;;;;;;;1.05;1.02;;;20.50;50.40;;;;;;5971553;23;20236;-85
2022/09/03 04:25:43;;;;;;;1.20;1.10;;;20.50;50.40;;;;;;5975008;23;20166;-85
2022/09/03 04:28:11;;;;;;;1.10;1.00;;;20.50;50.40;;;;;;6020101;23;20161;-85
2022/09/03 04:30:37;;;;;;;1.23;1.15;;;20.50;50.40;;;;;;5996868;23;20168;-85
2022/09/03 04:33:06;;;;;;;0.80;0.80;;;20.50;50.50;;;;;;6020547;23;20165;-85
2022/09/03 04:35:33;;;;;;;1.98;1.10;;;20.50;50.50;;;;;;6043413;23;20165;-85
2022/09/03 04:38:03;;;;;;;1.30;1.20;;;20.50;50.50;;;;;;6015200;23;20660;-86
2022/09/03 04:40:28;;;;;;;0.95;0.93;;;20.50;50.50;;;;;;5991903;23;20202;-85
2022/09/03 04:42:58;;;;;;;1.00;1.00;;;20.50;50.50;;;;;;6038827;23;20142;-85
2022/09/03 04:45:24;;;;;;;0.90;0.90;;;20.50;50.60;;;;;;6077308;23;20156;-85
2022/09/03 04:48:09;;;;;;;1.20;1.10;;;20.50;50.50;;;;;;6102358;23;20160;-86
2022/09/03 04:50:34;;;;;;;1.58;1.10;;;20.50;50.50;;;;;;6126773;23;20144;-85
2022/09/03 04:53:01;;;;;;;1.20;1.05;;;20.50;50.50;;;;;;6126664;23;20148;-85
2022/09/03 04:55:34;;;;;;;0.93;0.93;;;20.50;50.50;;;;;;6102776;23;20176;-85
2022/09/03 04:58:02;;;;;;;1.20;1.10;;;20.50;50.60;;;;;;6067644;23;20499;-85
2022/09/03 05:00:28;;;;;;;1.33;1.10;;;20.50;50.60;;;;;;6091383;23;20154;-85
2022/09/03 05:02:53;;;;;;;1.15;1.10;;;20.50;50.60;;;;;;6043303;23;20157;-86
2022/09/03 05:05:22;;;;;;;1.00;1.00;;;20.50;50.60;;;;;;6091219;23;20152;-85
2022/09/03 05:07:48;;;;;;;1.10;1.00;;;20.50;50.60;;;;;;6067655;23;20185;-84
2022/09/03 05:10:19;;;;;;;0.80;0.80;;;20.50;50.70;;;;;;6067322;23;20162;-84
2022/09/03 05:12:49;;;;;;;1.00;0.95;;;20.50;50.60;;;;;;6033028;23;20506;-86
2022/09/03 05:15:18;;;;;;;1.30;1.20;;;20.50;50.70;;;;;;5981505;23;20187;-86
2022/09/03 05:17:43;;;;;;;1.55;0.90;;;20.50;50.70;;;;;;5981796;23;20615;-86
2022/09/03 05:20:13;;;;;;;1.10;1.00;;;20.50;50.60;;;;;;6005564;23;20186;-86
2022/09/03 05:22:38;;;;;;;1.10;1.00;;;20.50;50.60;;;;;;5982049;23;20604;-86
2022/09/03 05:25:05;;;;;;;1.17;1.08;;;20.50;50.60;;;;;;5921674;24;20172;-86
2022/09/03 05:27:30;;;;;;;0.95;0.90;;;20.50;50.70;;;;;;5922141;24;20165;-86
2022/09/03 05:29:56;;;;;;;0.80;0.80;;;20.50;50.70;;;;;;5921832;24;20166;-85
2022/09/03 05:32:22;;;;;;;1.20;1.10;;;20.50;50.70;;;;;;5922275;24;20177;-86
2022/09/03 05:34:47;;;;;;;0.90;0.90;;;20.50;50.70;;;;;;5898849;24;20165;-86
2022/09/03 05:37:13;;;;;;;1.13;1.00;;;20.50;50.70;;;;;;5922380;24;20542;-85
2022/09/03 05:39:41;;;;;;;1.08;1.00;;;20.50;50.70;;;;;;5949866;24;20165;-85
2022/09/03 05:42:07;;;;;;;0.88;0.88;;;20.50;50.70;;;;;;5949585;24;20165;-85
2022/09/03 05:44:33;;;;;;;0.95;0.95;;;20.50;50.70;;;;;;5996821;23;20596;-85
2022/09/03 05:47:01;;;;;;;1.00;1.00;;;20.50;50.70;;;;;;6028613;23;20199;-85
2022/09/03 05:49:29;;;;;;;1.48;1.20;;;20.40;50.70;;;;;;5991496;23;20170;-85
2022/09/03 05:51:57;;;;;;;0.80;0.80;;;20.50;50.70;;;;;;6014967;23;20166;-85
2022/09/03 05:54:25;;;;;;;1.10;1.00;;;20.50;50.80;;;;;;5991211;23;20248;-85
2022/09/03 05:56:51;;;;;;;1.20;1.10;;;20.50;50.80;;;;;;6037728;23;20524;-85
2022/09/03 05:59:16;;;;;;;1.10;1.00;;;20.50;50.80;;;;;;6101749;23;20164;-85
2022/09/03 06:01:44;;;;;;;1.52;0.90;;;20.50;50.80;;;;;;6125916;23;20133;-86
2022/09/03 06:04:12;;;;;;;1.00;0.90;;;20.50;50.80;;;;;;6102126;23;20135;-86
2022/09/03 06:06:40;;;;;;;1.20;1.10;;;20.50;50.80;;;;;;6102190;23;20303;-86
2022/09/03 06:09:07;;;;;;;1.17;1.10;;;20.50;50.80;;;;;;6102239;23;20464;-85
2022/09/03 06:11:34;;;;;;;1.13;1.02;;;20.40;50.80;;;;;;6101295;23;20160;-86
2022/09/03 06:14:00;;;;;;;1.10;1.00;;;20.50;50.90;;;;;;6101873;23;20166;-85
2022/09/03 06:16:27;;;;;;;1.83;0.90;;;20.50;51.10;;;;;;6100873;23;20180;-85
2022/09/03 06:18:54;;;;;;;1.10;1.00;;;20.50;50.90;;;;;;6101169;23;20160;-85
2022/09/03 06:21:19;;;;;;;1.20;0.80;;;20.40;50.90;;;;;;6125855;23;20148;-85
2022/09/03 06:23:55;;;;;;;1.38;1.10;;;20.40;50.80;;;;;;6125640;23;20159;-86
2022/09/03 06:26:22;;;;;;;1.05;0.98;;;20.50;50.90;;;;;;6102250;23;20507;-85
2022/09/03 06:28:48;;;;;;;1.35;1.00;;;20.50;51.00;;;;;;6125448;23;20147;-85
2022/09/03 06:31:16;;;;;;;1.25;1.15;;;20.50;50.90;;;;;;6101204;23;20140;-85
2022/09/03 06:33:42;;;;;;;1.20;1.08;;;20.50;51.00;;;;;;6148968;23;20136;-84
2022/09/03 06:36:11;;;;;;;1.20;1.10;;;20.40;51.00;;;;;;6149227;23;20164;-85
2022/09/03 06:38:37;;;;;;;2.20;1.08;;;20.50;51.00;;;;;;6090140;23;20202;-85
2022/09/03 06:41:11;;;;;;;1.25;1.13;;;20.50;51.00;;;;;;6054131;23;20152;-85
2022/09/03 06:43:45;;;;;;;1.08;1.00;;;20.50;51.00;;;;;;6005528;23;20528;-86
2022/09/03 06:46:15;;;;;;;0.90;0.90;;;20.50;51.00;;;;;;6055159;23;20389;-86
2022/09/03 06:48:41;;;;;;;1.00;1.00;;;20.50;51.10;;;;;;6053710;23;20164;-85
2022/09/03 06:51:10;;;;;;;1.17;1.08;;;20.50;51.00;;;;;;6077109;23;20551;-85
2022/09/03 06:53:40;;;;;;;1.15;1.05;;;20.50;51.10;;;;;;6053923;23;20195;-85
2022/09/03 06:56:07;;;;;;;1.20;1.10;;;20.50;51.10;;;;;;6054899;23;20469;-85
2022/09/03 06:58:43;;;;;;;0.88;0.88;;;20.40;51.00;;;;;;6054280;23;20516;-86
2022/09/03 07:01:11;;;;;;;1.10;1.00;;;20.40;51.10;;;;;;6066447;23;20471;-87
2022/09/03 07:03:39;;;;;;;1.17;0.90;;;20.50;51.10;;;;;;6042670;23;20161;-86
2022/09/03 07:06:13;;;;;;;2.63;1.00;;;20.50;51.20;;;;;;6041283;23;20260;-86
2022/09/03 07:08:41;;;;;;;1.10;1.00;;;20.50;51.20;;;;;;6042240;23;20160;-86
2022/09/03 07:11:09;;;;;;;1.40;1.27;;;20.50;51.20;;;;;;6019454;23;20639;-85
2022/09/03 07:13:36;;;;;;;1.00;0.93;;;20.50;51.20;;;;;;6066264;23;20181;-85
2022/09/03 07:16:05;;;;;;;1.10;1.00;;;20.50;51.20;;;;;;6066356;23;20204;-86
2022/09/03 07:18:31;;;;;;;1.13;1.00;;;20.50;51.40;;;;;;6066898;23;20217;-85
2022/09/03 07:21:03;;;;;;;1.58;0.95;;;20.50;51.60;;;;;;6041914;23;20565;-86
2022/09/03 07:23:32;;;;;;;0.90;0.90;;;20.50;51.80;;;;;;5995615;23;20509;-86
2022/09/03 07:26:05;;;;;;;0.80;0.80;;;20.50;52.60;;;;;;5985457;23;20171;-85
2022/09/03 07:28:32;;;;;;;0.82;0.75;;;20.50;52.20;;;;;;5957622;24;20171;-85
2022/09/03 07:31:04;;;;;;;0.75;0.75;;;20.40;52.30;;;;;;5959641;23;20600;-85
2022/09/03 07:33:30;;;;;;;0.70;0.70;;;20.40;52.40;;;;;;5953207;24;20255;-86
2022/09/03 07:35:58;;;;;;;0.77;0.77;;;20.40;52.50;;;;;;5953154;24;20180;-86
2022/09/03 07:38:24;;;;;;;0.80;0.80;;;20.40;52.50;;;;;;5966391;24;20203;-86
2022/09/03 07:40:57;;;;;;;0.63;0.60;;;20.40;52.50;;;;;;5952528;24;20160;-86
2022/09/03 07:43:23;;;;;;;0.65;0.60;;;20.40;52.60;;;;;;5952905;24;20179;-85
2022/09/03 07:45:55;;;;;;;0.57;0.57;;;20.40;53.10;;;;;;5953038;24;20549;-86
2022/09/03 07:48:22;;;;;;;0.60;0.60;;;20.40;52.50;;;;;;5975829;24;20171;-86
2022/09/03 07:50:47;;;;;;;0.60;0.60;;;20.40;52.60;;;;;;5930036;24;20528;-86
2022/09/03 07:53:15;;;;;;;0.60;0.60;;;20.40;52.60;;;;;;5925004;24;20283;-86
2022/09/03 07:55:45;;;;;;;0.70;0.70;;;20.40;52.60;;;;;;5902159;24;20196;-86
2022/09/03 07:58:11;;;;;;;0.55;0.55;;;20.40;52.60;;;;;;5929937;24;20163;-86
2022/09/03 08:00:37;;;;;;;0.50;0.50;;;20.40;52.70;;;;;;5983836;23;20158;-86
2022/09/03 08:03:07;;;;;;;0.70;0.70;;;20.40;52.70;;;;;;5985223;23;20158;-86
2022/09/03 08:05:36;;;;;;;0.60;0.60;;;20.40;52.70;;;;;;5966491;23;20198;-86
2022/09/03 08:08:09;;;;;;;0.65;0.63;;;20.40;52.70;;;;;;5990771;23;20249;-86
2022/09/03 08:10:35;;;;;;;0.63;0.63;;;20.30;52.70;;;;;;6008464;23;20163;-86
2022/09/03 08:13:04;;;;;;;0.70;0.70;;;20.40;52.70;;;;;;5989557;23;20630;-87
2022/09/03 08:15:33;;;;;;;0.60;0.60;;;20.40;52.70;;;;;;6036478;23;20238;-86
2022/09/03 08:18:02;;;;;;;0.70;0.60;;;20.40;52.70;;;;;;6037275;23;20166;-86
2022/09/03 08:20:27;;;;;;;0.70;0.70;;;20.40;52.80;;;;;;6037109;23;20162;-86
2022/09/03 08:23:01;;;;;;;0.50;0.50;;;20.40;52.90;;;;;;6013254;23;20593;-86
2022/09/03 08:25:26;;;;;;;0.70;0.70;;;20.40;53.00;;;;;;6018504;23;20168;-86
2022/09/03 08:27:52;;;;;;;0.60;0.60;;;20.40;52.70;;;;;;6065420;23;20138;-86
2022/09/03 08:30:20;;;;;;;0.82;0.82;;;20.40;52.90;;;;;;6089306;23;20161;-86
2022/09/03 08:32:46;;;;;;;1.00;0.90;;;20.50;53.10;;;;;;6089456;23;20158;-87
2022/09/03 08:35:21;;;;;;;0.77;0.77;;;20.50;52.90;;;;;;6041599;23;20268;-86
2022/09/03 08:37:50;;;;;;;0.68;0.68;;;20.50;53.00;;;;;;6082584;23;20193;-86
2022/09/03 08:40:17;;;;;;;0.57;0.57;;;20.40;53.20;;;;;;6009130;23;20159;-86
2022/09/03 08:42:49;;;;;;;0.70;0.70;;;20.50;53.30;;;;;;5985304;23;20165;-86
2022/09/03 08:45:17;;;;;;;0.60;0.60;;;20.40;53.30;;;;;;5985662;23;20200;-86
2022/09/03 08:47:49;;;;;;;0.73;0.73;;;20.40;53.30;;;;;;5961996;23;20501;-85
2022/09/03 08:50:33;;;;;;;1.42;0.82;;;20.40;53.30;;;;;;6008076;23;20243;-86
2022/09/03 08:53:22;;;;;;;0.60;0.60;;;20.40;53.30;;;;;;6007611;23;20223;-87
2022/09/03 08:55:54;;;;;;;0.80;0.80;;;20.40;53.10;;;;;;5984438;23;20190;-85
2022/09/03 08:58:24;;;;;;;0.68;0.68;;;20.40;53.00;;;;;;6031694;23;20162;-86
2022/09/03 09:01:00;;;;;;;0.60;0.60;;;20.50;53.00;;;;;;5986080;23;20158;-86
2022/09/03 09:03:46;;;;;;;0.70;0.70;;;20.40;53.30;;;;;;5984283;23;20174;-86
2022/09/03 09:06:21;;;;;;;0.60;0.60;;;20.40;53.20;;;;;;6028183;23;20158;-85
2022/09/03 09:08:54;;;;;;;0.75;0.68;;;20.40;53.10;;;;;;5983408;23;20555;-85
2022/09/03 09:11:31;;;;;;;1.48;0.70;;;20.40;53.10;;;;;;6014606;23;20281;-85
2022/09/03 09:14:03;;;;;;;0.70;0.70;;;20.40;53.10;;;;;;6054259;23;20171;-85
2022/09/03 09:16:39;;;;;;;1.08;0.88;;;20.40;53.10;;;;;;6101288;23;20263;-86
2022/09/03 09:19:44;;;;;;;0.57;0.57;;;20.40;53.10;;;;;;6066873;23;20231;-86
2022/09/03 09:22:19;;;;;;;0.80;0.80;;;20.40;53.10;;;;;;6066739;23;20157;-85
2022/09/03 09:24:49;;;;;;;0.60;0.60;;;20.50;53.00;;;;;;6021178;23;20472;-86
2022/09/03 09:27:27;;;;;;;0.93;0.90;;;20.40;52.80;;;;;;6044123;23;20137;-86
2022/09/03 09:30:01;;;;;;;1.10;1.00;;;20.40;53.00;;;;;;6021329;23;20165;-85
2022/09/03 09:32:30;;;;;;;0.82;0.80;;;20.40;52.90;;;;;;6019224;23;20482;-85
2022/09/03 09:34:59;;;;;;;0.77;0.75;;;20.40;52.60;;;;;;5985969;23;20595;-85
2022/09/03 09:37:25;;;;;;;1.30;0.60;;;20.40;52.60;;;;;;5927544;24;20165;-86
2022/09/03 09:40:00;;;;;;;0.80;0.75;;;20.40;52.40;;;;;;5931059;24;20316;-86
2022/09/03 09:42:29;;;;;;;1.60;0.85;;;20.40;52.30;;;;;;5932619;24;20171;-86
2022/09/03 09:45:07;;;;;;;0.70;0.70;;;20.40;52.20;;;;;;5933632;24;20601;-86
2022/09/03 09:47:37;;;;;;;0.77;0.77;;;20.40;52.10;;;;;;5932194;24;20189;-87
2022/09/03 09:50:20;;;;;;;0.60;0.60;;;20.40;52.10;;;;;;5934115;24;20160;-86
2022/09/03 09:52:45;;;;;;;0.80;0.80;;;20.30;51.90;;;;;;5933103;24;20156;-86
2022/09/03 09:55:17;;;;;;;2.47;0.90;;;20.40;51.90;;;;;;5930472;24;20231;-84
2022/09/03 09:57:50;;;;;;;0.80;0.80;;;20.40;52.00;;;;;;5963405;23;20295;-86
2022/09/03 10:00:17;;;;;;;1.23;0.80;;;20.40;51.70;;;;;;5986927;23;20158;-86
2022/09/03 10:03:01;;;;;;;;;;;;;;;;;;;;;
2022/09/03 10:05:36;;;;;;;0.70;0.70;;;20.40;51.50;;;;;;5878956;24;20260;-85
2022/09/03 10:08:17;;;;;;;0.85;0.85;;;20.40;51.70;;;;;;5926162;24;20172;-86
2022/09/03 10:10:48;;;;;;;0.93;0.70;;;20.40;51.50;;;;;;5906223;24;20167;-85
2022/09/03 10:13:24;;;;;;;0.70;0.70;;;20.30;51.60;;;;;;5904137;24;20164;-85
2022/09/03 10:16:02;;;;;;;0.88;0.77;;;20.40;51.40;;;;;;5903491;24;20259;-86
2022/09/03 10:18:56;;;;;;;0.70;0.70;;;20.40;51.20;;;;;;5904533;24;20160;-86
2022/09/03 10:21:55;;;;;;;0.80;0.77;;;20.40;51.20;;;;;;5926046;24;20160;-86
2022/09/03 10:24:48;;;;;;;1.67;0.80;;;20.40;51.20;;;;;;5925202;24;20157;-85
2022/09/03 10:27:22;;;;;;;1.10;0.70;;;20.40;50.90;;;;;;5925081;24;20164;-86
2022/09/03 10:29:53;;;;;;;0.90;0.90;;;20.30;51.10;;;;;;5878901;24;20164;-86
2022/09/03 10:32:48;;;;;;;0.68;0.68;;;20.30;50.80;;;;;;5902370;24;20245;-86
2022/09/03 10:35:41;;;;;;;0.75;0.75;;;20.40;50.80;;;;;;5953532;23;20188;-85
2022/09/03 10:38:24;;;;;;;0.77;0.77;;;20.30;50.80;;;;;;5994508;23;20194;-86
2022/09/03 10:41:03;;;;;;;0.52;0.52;;;20.40;50.70;;;;;;6032842;23;20274;-86
2022/09/03 10:44:01;;;;;;;0.68;0.68;;;20.30;50.50;;;;;;5961758;23;20246;-86
2022/09/03 10:46:45;;;;;;;0.60;0.60;;;20.30;50.40;;;;;;5941954;23;20165;-86
2022/09/03 10:49:42;;;;;;;1.17;0.90;;;20.40;50.30;;;;;;5981383;23;20187;-86
2022/09/03 10:52:18;;;;;;;0.50;0.50;;;20.40;50.20;;;;;;5988555;23;20163;-86
2022/09/03 10:55:01;;;;;;;0.80;0.77;;;20.40;50.20;;;;;;5964450;23;20150;-87
2022/09/03 10:57:46;;;;;;;0.80;0.80;;;20.30;50.10;;;;;;5957333;24;20650;-86
2022/09/03 11:00:17;;;;;;;0.93;0.80;;;20.40;50.20;;;;;;5957355;24;20166;-86
2022/09/03 11:03:03;;;;;;;2.03;0.80;;;20.40;50.30;;;;;;5948203;24;20160;-86
2022/09/03 11:05:39;;;;;;;2.17;0.80;;;20.40;50.40;;;;;;5924066;24;20172;-86
2022/09/03 11:08:11;;;;;;;0.80;0.80;;;20.40;50.30;;;;;;5925257;24;20190;-86
2022/09/03 11:10:43;;;;;;;2.45;0.63;;;20.40;50.40;;;;;;5947955;24;20586;-87
2022/09/03 11:13:36;;;;;;;1.17;0.80;;;20.40;50.40;;;;;;5948443;24;20586;-87
2022/09/03 11:16:14;;;;;;;1.35;0.80;;;20.40;50.40;;;;;;5883727;24;20253;-86
2022/09/03 11:18:50;;;;;;;3.70;0.82;;;20.50;50.20;;;;;;5946884;24;20542;-87
2022/09/03 11:21:23;;;;;;;3.40;0.73;;;20.40;50.10;;;;;;5903096;24;20242;-87
2022/09/03 11:24:13;;;;;;;3.75;0.73;;;20.40;50.10;;;;;;5850555;24;20165;-87
2022/09/03 11:26:51;;;;;;;1.40;0.90;;;20.40;50.10;;;;;;5804606;24;20177;-87
2022/09/03 11:29:49;;;;;;;4.78;1.00;;;20.40;50.10;;;;;;5884419;24;20245;-87
2022/09/03 11:32:51;;;;;;;2.45;0.80;;;20.30;50.00;;;;;;5980981;24;20753;-87
2022/09/03 11:35:45;;;;;;;2.85;0.70;;;20.40;50.10;;;;;;5991319;23;20190;-88
2022/09/03 11:38:30;;;;;;;1.50;0.75;;;20.40;50.10;;;;;;5985217;23;20282;-87
2022/09/03 11:41:17;;;;;;;1.52;0.75;;;20.40;50.10;;;;;;5956314;24;20244;-87
2022/09/03 11:43:48;;;;;;;0.88;0.80;;;20.40;50.10;;;;;;5950834;24;20167;-87
2022/09/03 11:46:30;;;;;;;0.70;0.70;;;20.40;50.00;;;;;;6000370;23;20259;-87
2022/09/03 11:49:24;;;;;;;3.00;0.90;;;20.40;50.00;;;;;;5955574;24;20168;-87
2022/09/03 11:52:27;;;;;;;2.35;0.77;;;20.50;50.00;;;;;;5988021;23;20156;-86
2022/09/03 11:54:55;;;;;;;4.07;0.98;;;20.50;50.00;;;;;;6013818;23;20157;-87
2022/09/03 11:57:30;;;;;;;1.27;0.90;;;20.50;50.00;;;;;;6065811;23;20185;-86
2022/09/03 12:00:24;;;;;;;2.25;0.65;;;20.40;49.80;;;;;;6094844;23;20149;-86
2022/09/03 12:02:57;;;;;;;3.13;0.70;;;20.50;49.80;;;;;;6018864;23;20249;-85
2022/09/03 12:05:41;;;;;;;1.58;0.80;;;20.50;49.80;;;;;;6037289;23;20633;-86
2022/09/03 12:08:24;;;;;;;5.97;0.90;;;20.50;49.80;;;;;;6037351;23;20161;-87
2022/09/03 12:11:19;;;;;;;1.02;0.70;;;20.50;49.80;;;;;;6044373;23;20233;-87
2022/09/03 12:14:03;;;;;;;2.58;0.80;;;20.50;49.70;;;;;;6036729;23;20642;-87
2022/09/03 12:16:50;;;;;;;0.85;0.70;;;20.50;49.60;;;;;;6043090;23;20189;-86
2022/09/03 12:19:28;;;;;;;1.60;0.80;;;20.40;49.40;;;;;;6065758;23;20133;-86
2022/09/03 12:21:56;;;;;;;1.45;0.60;;;20.50;49.20;;;;;;6065532;23;20156;-86
2022/09/03 12:24:34;;;;;;;0.82;0.70;;;20.50;49.00;;;;;;6018035;23;20680;-86
2022/09/03 12:27:01;;;;;;;2.70;0.77;;;20.50;48.90;;;;;;6018205;23;20161;-86
2022/09/03 12:29:36;;;;;;;1.77;0.73;;;20.50;48.70;;;;;;6065876;23;20485;-86
2022/09/03 12:32:06;;;;;;;1.48;0.60;;;20.40;48.60;;;;;;6065706;23;20171;-86
2022/09/03 12:34:40;;;;;;;0.70;0.68;;;20.50;48.50;;;;;;6041896;23;20157;-86
2022/09/03 12:37:22;;;;;;;1.90;0.88;;;20.50;48.40;;;;;;6066014;23;20699;-87
2022/09/03 12:39:59;;;;;;;1.88;0.60;;;20.50;48.30;;;;;;6024237;23;20251;-87
2022/09/03 12:42:30;;;;;;;1.05;0.50;;;20.50;48.30;;;;;;6046245;23;20160;-86
2022/09/03 12:45:16;;;;;;;1.00;0.75;;;20.50;48.10;;;;;;6038068;23;20158;-86
2022/09/03 12:47:55;;;;;;;0.63;0.63;;;20.50;48.00;;;;;;6037550;23;20173;-87
2022/09/03 12:50:26;;;;;;;1.63;0.60;;;20.50;48.00;;;;;;6006149;23;20238;-87
2022/09/03 12:53:02;;;;;;;2.38;0.65;;;20.50;48.00;;;;;;5983587;23;20250;-87
2022/09/03 12:55:34;;;;;;;0.90;0.70;;;20.50;48.00;;;;;;5982579;24;20187;-87
2022/09/03 12:58:18;;;;;;;0.65;0.65;;;20.50;48.00;;;;;;5958356;24;20151;-87
2022/09/03 13:01:07;;;;;;;3.28;0.98;;;20.60;47.90;;;;;;5920423;24;20165;-87
2022/09/03 13:04:01;;;;;;;0.60;0.60;;;20.50;47.70;;;;;;6004814;23;20570;-87
2022/09/03 13:06:59;;;;;;;0.75;0.65;;;20.50;47.80;;;;;;6026067;23;20164;-87
2022/09/03 13:09:30;;;;;;;4.53;1.70;;;20.50;47.80;;;;;;5953051;24;20209;-87
2022/09/03 13:12:04;;;;;;;3.28;0.80;;;20.50;47.80;;;;;;5935844;24;20159;-87
2022/09/03 13:14:47;;;;;;;4.65;1.27;;;20.50;47.70;;;;;;5914293;24;20611;-87
2022/09/03 13:17:56;;;;;;;4.03;0.88;;;20.50;47.60;;;;;;5903736;24;20648;-87
2022/09/03 13:20:53;;;;;;;1.88;0.80;;;20.50;47.40;;;;;;5926636;24;20175;-87
2022/09/03 13:23:44;;;;;;;1.02;0.80;;;20.50;47.40;;;;;;5903773;24;20168;-87
2022/09/03 13:26:22;;;;;;;4.07;1.00;;;20.50;47.30;;;;;;5898979;24;20169;-87